sensor_id;sensor_type;location;lat;lon;timestamp;P1;durP1;ratioP1;P2;durP2;ratioP2
28760;SDS011;15917;50.014;8.352;2024-03-08T00:00:14;28.98;;;14.57;;
28760;SDS011;15917;50.014;8.352;2024-03-08T00:02:43;44.13;;;15.48;;
28760;SDS011;15917;50.014;8.352;2024-03-08T00:05:10;34.10;;;15.63;;
28760;SDS011;15917;50.014;8.352;2024-03-08T00:07:37;32.78;;;15.75;;
28760;SDS011;15917;50.014;8.352;2024-03-08T00:10:06;34.13;;;17.45;;
28760;SDS011;15917;50.014;8.352;2024-03-08T00:12:37;32.70;;;14.45;;
28760;SDS011;15917;50.014;8.352;2024-03-08T00:15:09;34.15;;;15.73;;
28760;SDS011;15917;50.014;8.352;2024-03-08T00:17:38;33.25;;;15.68;;
28760;SDS011;15917;50.014;8.352;2024-03-08T00:20:08;32.05;;;15.27;;
28760;SDS011;15917;50.014;8.352;2024-03-08T00:22:34;29.27;;;15.45;;
28760;SDS011;15917;50.014;8.352;2024-03-08T00:25:01;34.33;;;15.83;;
28760;SDS011;15917;50.014;8.352;2024-03-08T00:27:27;35.45;;;15.70;;
28760;SDS011;15917;50.014;8.352;2024-03-08T00:29:55;32.45;;;14.93;;
28760;SDS011;15917;50.014;8.352;2024-03-08T00:32:22;29.83;;;15.10;;
28760;SDS011;15917;50.014;8.352;2024-03-08T00:34:50;33.25;;;16.20;;
28760;SDS011;15917;50.014;8.352;2024-03-08T00:37:19;36.33;;;15.02;;
28760;SDS011;15917;50.014;8.352;2024-03-08T00:39:47;32.80;;;14.10;;
28760;SDS011;15917;50.014;8.352;2024-03-08T00:42:16;34.38;;;14.60;;
28760;SDS011;15917;50.014;8.352;2024-03-08T00:44:43;40.13;;;14.38;;
28760;SDS011;15917;50.014;8.352;2024-03-08T00:47:08;34.22;;;14.90;;
28760;SDS011;15917;50.014;8.352;2024-03-08T00:49:34;33.80;;;15.82;;
28760;SDS011;15917;50.014;8.352;2024-03-08T00:52:03;29.35;;;13.77;;
28760;SDS011;15917;50.014;8.352;2024-03-08T00:54:31;32.53;;;14.80;;
28760;SDS011;15917;50.014;8.352;2024-03-08T00:56:56;34.55;;;14.60;;
28760;SDS011;15917;50.014;8.352;2024-03-08T00:59:22;30.98;;;14.35;;
28760;SDS011;15917;50.014;8.352;2024-03-08T01:01:48;30.52;;;14.48;;
28760;SDS011;15917;50.014;8.352;2024-03-08T01:04:13;31.92;;;14.05;;
28760;SDS011;15917;50.014;8.352;2024-03-08T01:06:39;33.88;;;14.45;;
28760;SDS011;15917;50.014;8.352;2024-03-08T01:09:04;32.45;;;14.75;;
28760;SDS011;15917;50.014;8.352;2024-03-08T01:11:32;30.85;;;15.25;;
28760;SDS011;15917;50.014;8.352;2024-03-08T01:13:59;33.58;;;15.75;;
28760;SDS011;15917;50.014;8.352;2024-03-08T01:16:24;35.00;;;15.82;;
28760;SDS011;15917;50.014;8.352;2024-03-08T01:18:50;31.92;;;15.70;;
28760;SDS011;15917;50.014;8.352;2024-03-08T01:21:15;33.22;;;15.35;;
28760;SDS011;15917;50.014;8.352;2024-03-08T01:23:41;33.35;;;15.25;;
28760;SDS011;15917;50.014;8.352;2024-03-08T01:26:07;30.48;;;14.77;;
28760;SDS011;15917;50.014;8.352;2024-03-08T01:28:32;29.20;;;14.00;;
28760;SDS011;15917;50.014;8.352;2024-03-08T01:30:59;36.80;;;16.88;;
28760;SDS011;15917;50.014;8.352;2024-03-08T01:33:26;32.10;;;15.88;;
28760;SDS011;15917;50.014;8.352;2024-03-08T01:35:52;31.90;;;15.10;;
28760;SDS011;15917;50.014;8.352;2024-03-08T01:38:18;41.42;;;16.17;;
28760;SDS011;15917;50.014;8.352;2024-03-08T01:40:46;34.70;;;16.35;;
28760;SDS011;15917;50.014;8.352;2024-03-08T01:43:16;37.75;;;15.73;;
28760;SDS011;15917;50.014;8.352;2024-03-08T01:45:42;35.78;;;15.50;;
28760;SDS011;15917;50.014;8.352;2024-03-08T01:48:08;36.33;;;16.60;;
28760;SDS011;15917;50.014;8.352;2024-03-08T01:50:33;35.03;;;16.30;;
28760;SDS011;15917;50.014;8.352;2024-03-08T01:53:01;31.70;;;15.48;;
28760;SDS011;15917;50.014;8.352;2024-03-08T01:55:28;39.70;;;17.07;;
28760;SDS011;15917;50.014;8.352;2024-03-08T01:57:53;38.22;;;16.60;;
28760;SDS011;15917;50.014;8.352;2024-03-08T02:00:20;41.45;;;18.05;;
28760;SDS011;15917;50.014;8.352;2024-03-08T02:02:46;34.95;;;16.83;;
28760;SDS011;15917;50.014;8.352;2024-03-08T02:05:14;35.67;;;16.48;;
28760;SDS011;15917;50.014;8.352;2024-03-08T02:07:41;39.10;;;17.15;;
28760;SDS011;15917;50.014;8.352;2024-03-08T02:10:09;40.78;;;17.15;;
28760;SDS011;15917;50.014;8.352;2024-03-08T02:12:35;36.78;;;17.30;;
28760;SDS011;15917;50.014;8.352;2024-03-08T02:15:01;35.60;;;17.13;;
28760;SDS011;15917;50.014;8.352;2024-03-08T02:17:26;41.78;;;16.75;;
28760;SDS011;15917;50.014;8.352;2024-03-08T02:19:52;33.33;;;16.90;;
28760;SDS011;15917;50.014;8.352;2024-03-08T02:22:18;37.85;;;16.65;;
28760;SDS011;15917;50.014;8.352;2024-03-08T02:24:44;32.83;;;15.52;;
28760;SDS011;15917;50.014;8.352;2024-03-08T02:27:10;38.17;;;17.30;;
28760;SDS011;15917;50.014;8.352;2024-03-08T02:29:37;35.70;;;16.83;;
28760;SDS011;15917;50.014;8.352;2024-03-08T02:32:06;37.67;;;16.67;;
28760;SDS011;15917;50.014;8.352;2024-03-08T02:34:31;35.83;;;15.82;;
28760;SDS011;15917;50.014;8.352;2024-03-08T02:36:57;40.67;;;16.98;;
28760;SDS011;15917;50.014;8.352;2024-03-08T02:39:22;35.47;;;17.30;;
28760;SDS011;15917;50.014;8.352;2024-03-08T02:41:48;39.10;;;17.13;;
28760;SDS011;15917;50.014;8.352;2024-03-08T02:44:13;42.08;;;17.75;;
28760;SDS011;15917;50.014;8.352;2024-03-08T02:46:40;33.53;;;17.80;;
28760;SDS011;15917;50.014;8.352;2024-03-08T02:49:05;45.38;;;19.35;;
28760;SDS011;15917;50.014;8.352;2024-03-08T02:51:32;38.42;;;16.77;;
28760;SDS011;15917;50.014;8.352;2024-03-08T02:54:25;46.83;;;19.08;;
28760;SDS011;15917;50.014;8.352;2024-03-08T02:56:51;44.35;;;17.70;;
28760;SDS011;15917;50.014;8.352;2024-03-08T02:59:16;42.25;;;19.98;;
28760;SDS011;15917;50.014;8.352;2024-03-08T03:01:45;42.70;;;19.48;;
28760;SDS011;15917;50.014;8.352;2024-03-08T03:04:10;51.85;;;20.98;;
28760;SDS011;15917;50.014;8.352;2024-03-08T03:06:36;50.15;;;20.83;;
28760;SDS011;15917;50.014;8.352;2024-03-08T03:09:02;45.00;;;19.70;;
28760;SDS011;15917;50.014;8.352;2024-03-08T03:11:27;48.05;;;20.10;;
28760;SDS011;15917;50.014;8.352;2024-03-08T03:13:53;52.42;;;20.67;;
28760;SDS011;15917;50.014;8.352;2024-03-08T03:16:19;47.30;;;19.35;;
28760;SDS011;15917;50.014;8.352;2024-03-08T03:18:45;48.90;;;20.20;;
28760;SDS011;15917;50.014;8.352;2024-03-08T03:21:11;50.67;;;19.38;;
28760;SDS011;15917;50.014;8.352;2024-03-08T03:23:38;49.67;;;20.60;;
28760;SDS011;15917;50.014;8.352;2024-03-08T03:26:07;42.85;;;19.98;;
28760;SDS011;15917;50.014;8.352;2024-03-08T03:28:33;44.17;;;18.98;;
28760;SDS011;15917;50.014;8.352;2024-03-08T03:30:59;46.72;;;20.10;;
28760;SDS011;15917;50.014;8.352;2024-03-08T03:33:26;46.63;;;19.67;;
28760;SDS011;15917;50.014;8.352;2024-03-08T03:35:52;56.88;;;21.65;;
28760;SDS011;15917;50.014;8.352;2024-03-08T03:38:17;56.60;;;21.40;;
28760;SDS011;15917;50.014;8.352;2024-03-08T03:40:45;50.63;;;19.13;;
28760;SDS011;15917;50.014;8.352;2024-03-08T03:43:11;45.92;;;20.75;;
28760;SDS011;15917;50.014;8.352;2024-03-08T03:45:37;50.45;;;20.65;;
28760;SDS011;15917;50.014;8.352;2024-03-08T03:48:04;48.78;;;20.17;;
28760;SDS011;15917;50.014;8.352;2024-03-08T03:50:34;43.63;;;20.13;;
28760;SDS011;15917;50.014;8.352;2024-03-08T03:53:00;48.72;;;19.65;;
28760;SDS011;15917;50.014;8.352;2024-03-08T03:55:27;54.63;;;22.20;;
28760;SDS011;15917;50.014;8.352;2024-03-08T03:57:53;57.22;;;22.00;;
28760;SDS011;15917;50.014;8.352;2024-03-08T04:00:19;53.45;;;21.77;;
28760;SDS011;15917;50.014;8.352;2024-03-08T04:02:45;57.95;;;23.48;;
28760;SDS011;15917;50.014;8.352;2024-03-08T04:05:11;59.45;;;21.95;;
28760;SDS011;15917;50.014;8.352;2024-03-08T04:07:37;52.22;;;20.23;;
28760;SDS011;15917;50.014;8.352;2024-03-08T04:10:04;57.97;;;22.55;;
28760;SDS011;15917;50.014;8.352;2024-03-08T04:14:57;45.78;;;20.02;;
28760;SDS011;15917;50.014;8.352;2024-03-08T04:17:23;46.78;;;20.23;;
28760;SDS011;15917;50.014;8.352;2024-03-08T04:19:51;49.45;;;20.58;;
28760;SDS011;15917;50.014;8.352;2024-03-08T04:22:18;52.10;;;19.85;;
28760;SDS011;15917;50.014;8.352;2024-03-08T04:24:44;40.70;;;19.13;;
28760;SDS011;15917;50.014;8.352;2024-03-08T04:27:10;49.83;;;18.93;;
28760;SDS011;15917;50.014;8.352;2024-03-08T04:29:36;38.65;;;17.40;;
28760;SDS011;15917;50.014;8.352;2024-03-08T04:32:05;48.25;;;19.17;;
28760;SDS011;15917;50.014;8.352;2024-03-08T04:34:32;40.13;;;18.92;;
28760;SDS011;15917;50.014;8.352;2024-03-08T04:36:59;36.58;;;16.88;;
28760;SDS011;15917;50.014;8.352;2024-03-08T04:39:26;41.47;;;18.83;;
28760;SDS011;15917;50.014;8.352;2024-03-08T04:41:58;43.88;;;18.67;;
28760;SDS011;15917;50.014;8.352;2024-03-08T04:44:28;40.90;;;17.77;;
28760;SDS011;15917;50.014;8.352;2024-03-08T04:46:54;45.05;;;18.90;;
28760;SDS011;15917;50.014;8.352;2024-03-08T04:49:20;41.45;;;18.40;;
28760;SDS011;15917;50.014;8.352;2024-03-08T04:51:47;42.67;;;19.52;;
28760;SDS011;15917;50.014;8.352;2024-03-08T04:54:13;47.22;;;18.65;;
28760;SDS011;15917;50.014;8.352;2024-03-08T04:56:39;40.38;;;17.73;;
28760;SDS011;15917;50.014;8.352;2024-03-08T04:59:04;42.25;;;17.80;;
28760;SDS011;15917;50.014;8.352;2024-03-08T05:01:33;40.85;;;18.00;;
28760;SDS011;15917;50.014;8.352;2024-03-08T05:03:58;40.10;;;17.98;;
28760;SDS011;15917;50.014;8.352;2024-03-08T05:06:24;44.40;;;19.45;;
28760;SDS011;15917;50.014;8.352;2024-03-08T05:08:50;45.33;;;17.77;;
28760;SDS011;15917;50.014;8.352;2024-03-08T05:11:15;43.58;;;18.10;;
28760;SDS011;15917;50.014;8.352;2024-03-08T05:13:41;56.80;;;21.58;;
28760;SDS011;15917;50.014;8.352;2024-03-08T05:16:06;39.88;;;19.30;;
28760;SDS011;15917;50.014;8.352;2024-03-08T05:18:33;45.50;;;19.45;;
28760;SDS011;15917;50.014;8.352;2024-03-08T05:20:59;47.30;;;19.65;;
28760;SDS011;15917;50.014;8.352;2024-03-08T05:23:24;42.83;;;19.25;;
28760;SDS011;15917;50.014;8.352;2024-03-08T05:25:50;48.17;;;19.83;;
28760;SDS011;15917;50.014;8.352;2024-03-08T05:28:16;49.03;;;20.10;;
28760;SDS011;15917;50.014;8.352;2024-03-08T05:30:42;44.80;;;20.17;;
28760;SDS011;15917;50.014;8.352;2024-03-08T05:33:07;54.60;;;21.35;;
28760;SDS011;15917;50.014;8.352;2024-03-08T05:35:35;47.65;;;20.83;;
28760;SDS011;15917;50.014;8.352;2024-03-08T05:38:01;45.30;;;21.08;;
28760;SDS011;15917;50.014;8.352;2024-03-08T05:40:27;45.55;;;21.33;;
28760;SDS011;15917;50.014;8.352;2024-03-08T05:42:57;47.38;;;20.30;;
28760;SDS011;15917;50.014;8.352;2024-03-08T05:45:23;44.97;;;19.63;;
28760;SDS011;15917;50.014;8.352;2024-03-08T05:47:50;43.20;;;20.40;;
28760;SDS011;15917;50.014;8.352;2024-03-08T05:50:17;47.67;;;21.15;;
28760;SDS011;15917;50.014;8.352;2024-03-08T05:52:43;48.75;;;21.98;;
28760;SDS011;15917;50.014;8.352;2024-03-08T05:55:08;50.60;;;21.08;;
28760;SDS011;15917;50.014;8.352;2024-03-08T05:57:35;49.47;;;18.73;;
28760;SDS011;15917;50.014;8.352;2024-03-08T06:00:05;63.47;;;21.67;;
28760;SDS011;15917;50.014;8.352;2024-03-08T06:02:38;46.67;;;22.50;;
28760;SDS011;15917;50.014;8.352;2024-03-08T06:05:07;44.17;;;20.05;;
28760;SDS011;15917;50.014;8.352;2024-03-08T06:07:34;53.00;;;22.80;;
28760;SDS011;15917;50.014;8.352;2024-03-08T06:09:59;50.63;;;21.65;;
28760;SDS011;15917;50.014;8.352;2024-03-08T06:12:25;51.22;;;22.70;;
28760;SDS011;15917;50.014;8.352;2024-03-08T06:14:54;65.45;;;24.20;;
28760;SDS011;15917;50.014;8.352;2024-03-08T06:17:19;52.47;;;24.13;;
28760;SDS011;15917;50.014;8.352;2024-03-08T06:19:45;53.55;;;23.58;;
28760;SDS011;15917;50.014;8.352;2024-03-08T06:22:11;59.47;;;24.73;;
28760;SDS011;15917;50.014;8.352;2024-03-08T06:24:38;62.65;;;25.30;;
28760;SDS011;15917;50.014;8.352;2024-03-08T06:27:04;62.40;;;25.38;;
28760;SDS011;15917;50.014;8.352;2024-03-08T06:29:29;63.55;;;25.73;;
28760;SDS011;15917;50.014;8.352;2024-03-08T06:31:55;70.53;;;27.10;;
28760;SDS011;15917;50.014;8.352;2024-03-08T06:34:20;67.80;;;26.00;;
28760;SDS011;15917;50.014;8.352;2024-03-08T06:36:46;73.20;;;28.42;;
28760;SDS011;15917;50.014;8.352;2024-03-08T06:39:12;60.05;;;26.02;;
28760;SDS011;15917;50.014;8.352;2024-03-08T06:41:37;60.28;;;26.25;;
28760;SDS011;15917;50.014;8.352;2024-03-08T06:44:03;67.38;;;29.08;;
28760;SDS011;15917;50.014;8.352;2024-03-08T06:46:29;63.60;;;26.00;;
28760;SDS011;15917;50.014;8.352;2024-03-08T06:48:54;59.03;;;26.50;;
28760;SDS011;15917;50.014;8.352;2024-03-08T06:51:20;59.38;;;25.80;;
28760;SDS011;15917;50.014;8.352;2024-03-08T06:53:46;64.43;;;26.10;;
28760;SDS011;15917;50.014;8.352;2024-03-08T06:56:12;63.90;;;26.70;;
28760;SDS011;15917;50.014;8.352;2024-03-08T06:58:38;59.72;;;25.13;;
28760;SDS011;15917;50.014;8.352;2024-03-08T07:01:04;60.75;;;24.98;;
28760;SDS011;15917;50.014;8.352;2024-03-08T07:03:32;54.83;;;24.17;;
28760;SDS011;15917;50.014;8.352;2024-03-08T07:05:58;68.38;;;25.25;;
28760;SDS011;15917;50.014;8.352;2024-03-08T07:08:23;64.03;;;24.85;;
28760;SDS011;15917;50.014;8.352;2024-03-08T07:10:49;59.70;;;26.60;;
28760;SDS011;15917;50.014;8.352;2024-03-08T07:13:15;61.95;;;26.25;;
28760;SDS011;15917;50.014;8.352;2024-03-08T07:15:42;55.45;;;22.80;;
28760;SDS011;15917;50.014;8.352;2024-03-08T07:18:08;53.28;;;23.42;;
28760;SDS011;15917;50.014;8.352;2024-03-08T07:20:39;59.28;;;24.80;;
28760;SDS011;15917;50.014;8.352;2024-03-08T07:23:05;61.00;;;23.75;;
28760;SDS011;15917;50.014;8.352;2024-03-08T07:25:30;56.22;;;24.42;;
28760;SDS011;15917;50.014;8.352;2024-03-08T07:27:56;52.10;;;23.35;;
28760;SDS011;15917;50.014;8.352;2024-03-08T07:30:22;58.08;;;23.67;;
28760;SDS011;15917;50.014;8.352;2024-03-08T07:33:07;50.70;;;21.73;;
28760;SDS011;15917;50.014;8.352;2024-03-08T07:35:37;50.55;;;22.20;;
28760;SDS011;15917;50.014;8.352;2024-03-08T07:38:06;55.15;;;23.83;;
28760;SDS011;15917;50.014;8.352;2024-03-08T07:40:39;54.10;;;23.08;;
28760;SDS011;15917;50.014;8.352;2024-03-08T07:43:09;45.30;;;20.92;;
28760;SDS011;15917;50.014;8.352;2024-03-08T07:45:36;50.58;;;21.63;;
28760;SDS011;15917;50.014;8.352;2024-03-08T07:48:02;51.80;;;20.67;;
28760;SDS011;15917;50.014;8.352;2024-03-08T07:50:28;47.22;;;21.50;;
28760;SDS011;15917;50.014;8.352;2024-03-08T07:52:54;50.50;;;21.95;;
28760;SDS011;15917;50.014;8.352;2024-03-08T07:55:20;54.35;;;20.73;;
28760;SDS011;15917;50.014;8.352;2024-03-08T07:57:49;56.20;;;22.25;;
28760;SDS011;15917;50.014;8.352;2024-03-08T08:00:15;46.65;;;19.67;;
28760;SDS011;15917;50.014;8.352;2024-03-08T08:02:44;37.00;;;18.52;;
28760;SDS011;15917;50.014;8.352;2024-03-08T08:05:10;47.85;;;20.98;;
28760;SDS011;15917;50.014;8.352;2024-03-08T08:07:36;53.90;;;20.63;;
28760;SDS011;15917;50.014;8.352;2024-03-08T08:10:02;44.67;;;19.00;;
28760;SDS011;15917;50.014;8.352;2024-03-08T08:12:27;36.58;;;18.10;;
28760;SDS011;15917;50.014;8.352;2024-03-08T08:14:54;42.88;;;20.17;;
28760;SDS011;15917;50.014;8.352;2024-03-08T08:17:19;48.45;;;20.75;;
28760;SDS011;15917;50.014;8.352;2024-03-08T08:19:45;38.92;;;19.27;;
28760;SDS011;15917;50.014;8.352;2024-03-08T08:22:11;39.85;;;19.52;;
28760;SDS011;15917;50.014;8.352;2024-03-08T08:24:37;43.25;;;19.60;;
28760;SDS011;15917;50.014;8.352;2024-03-08T08:27:03;45.03;;;19.65;;
28760;SDS011;15917;50.014;8.352;2024-03-08T08:29:29;39.92;;;18.70;;
28760;SDS011;15917;50.014;8.352;2024-03-08T08:31:57;40.78;;;18.60;;
28760;SDS011;15917;50.014;8.352;2024-03-08T08:34:24;35.80;;;17.70;;
28760;SDS011;15917;50.014;8.352;2024-03-08T08:36:51;40.67;;;18.85;;
28760;SDS011;15917;50.014;8.352;2024-03-08T08:39:18;38.78;;;18.08;;
28760;SDS011;15917;50.014;8.352;2024-03-08T08:41:44;45.13;;;18.45;;
28760;SDS011;15917;50.014;8.352;2024-03-08T08:44:09;41.10;;;18.80;;
28760;SDS011;15917;50.014;8.352;2024-03-08T08:46:37;35.03;;;17.65;;
28760;SDS011;15917;50.014;8.352;2024-03-08T08:49:04;38.03;;;18.55;;
28760;SDS011;15917;50.014;8.352;2024-03-08T08:51:31;38.92;;;18.35;;
28760;SDS011;15917;50.014;8.352;2024-03-08T08:53:58;35.65;;;18.30;;
28760;SDS011;15917;50.014;8.352;2024-03-08T08:56:24;39.42;;;17.98;;
28760;SDS011;15917;50.014;8.352;2024-03-08T08:58:51;38.00;;;18.38;;
28760;SDS011;15917;50.014;8.352;2024-03-08T09:01:18;41.50;;;17.98;;
28760;SDS011;15917;50.014;8.352;2024-03-08T09:03:44;35.83;;;17.15;;
28760;SDS011;15917;50.014;8.352;2024-03-08T09:06:12;39.05;;;19.02;;
28760;SDS011;15917;50.014;8.352;2024-03-08T09:08:38;35.50;;;18.98;;
28760;SDS011;15917;50.014;8.352;2024-03-08T09:11:04;36.22;;;18.17;;
28760;SDS011;15917;50.014;8.352;2024-03-08T09:13:30;41.92;;;19.52;;
28760;SDS011;15917;50.014;8.352;2024-03-08T09:15:56;36.88;;;17.88;;
28760;SDS011;15917;50.014;8.352;2024-03-08T09:18:22;39.22;;;18.50;;
28760;SDS011;15917;50.014;8.352;2024-03-08T09:20:49;38.15;;;17.95;;
28760;SDS011;15917;50.014;8.352;2024-03-08T09:23:15;38.80;;;17.92;;
28760;SDS011;15917;50.014;8.352;2024-03-08T09:25:42;40.25;;;17.30;;
28760;SDS011;15917;50.014;8.352;2024-03-08T09:28:08;36.30;;;17.58;;
28760;SDS011;15917;50.014;8.352;2024-03-08T09:30:36;35.40;;;16.98;;
28760;SDS011;15917;50.014;8.352;2024-03-08T09:33:03;34.28;;;16.48;;
28760;SDS011;15917;50.014;8.352;2024-03-08T09:35:30;35.57;;;17.43;;
28760;SDS011;15917;50.014;8.352;2024-03-08T09:37:56;36.15;;;18.08;;
28760;SDS011;15917;50.014;8.352;2024-03-08T09:40:22;35.92;;;16.35;;
28760;SDS011;15917;50.014;8.352;2024-03-08T09:42:49;33.45;;;16.95;;
28760;SDS011;15917;50.014;8.352;2024-03-08T09:45:15;34.17;;;16.13;;
28760;SDS011;15917;50.014;8.352;2024-03-08T09:47:42;37.80;;;15.65;;
28760;SDS011;15917;50.014;8.352;2024-03-08T09:50:09;31.02;;;15.75;;
28760;SDS011;15917;50.014;8.352;2024-03-08T09:52:41;33.50;;;15.90;;
28760;SDS011;15917;50.014;8.352;2024-03-08T09:55:09;37.92;;;15.70;;
28760;SDS011;15917;50.014;8.352;2024-03-08T09:57:39;28.92;;;14.82;;
28760;SDS011;15917;50.014;8.352;2024-03-08T10:00:06;32.22;;;15.70;;
28760;SDS011;15917;50.014;8.352;2024-03-08T10:02:49;32.28;;;16.13;;
28760;SDS011;15917;50.014;8.352;2024-03-08T10:05:17;33.45;;;15.73;;
28760;SDS011;15917;50.014;8.352;2024-03-08T10:07:43;30.52;;;14.77;;
28760;SDS011;15917;50.014;8.352;2024-03-08T10:10:09;31.08;;;14.40;;
28760;SDS011;15917;50.014;8.352;2024-03-08T10:12:37;26.30;;;13.32;;
28760;SDS011;15917;50.014;8.352;2024-03-08T10:15:05;34.10;;;14.87;;
28760;SDS011;15917;50.014;8.352;2024-03-08T10:17:34;25.63;;;12.63;;
28760;SDS011;15917;50.014;8.352;2024-03-08T10:20:00;34.63;;;13.13;;
28760;SDS011;15917;50.014;8.352;2024-03-08T10:22:26;24.02;;;12.68;;
28760;SDS011;15917;50.014;8.352;2024-03-08T10:24:52;25.83;;;12.25;;
28760;SDS011;15917;50.014;8.352;2024-03-08T10:27:17;32.03;;;12.07;;
28760;SDS011;15917;50.014;8.352;2024-03-08T10:29:46;21.45;;;11.57;;
28760;SDS011;15917;50.014;8.352;2024-03-08T10:32:16;22.55;;;11.50;;
28760;SDS011;15917;50.014;8.352;2024-03-08T10:34:42;29.88;;;12.07;;
28760;SDS011;15917;50.014;8.352;2024-03-08T10:37:08;25.40;;;11.77;;
28760;SDS011;15917;50.014;8.352;2024-03-08T10:39:42;22.63;;;12.27;;
28760;SDS011;15917;50.014;8.352;2024-03-08T10:42:16;27.15;;;12.98;;
28760;SDS011;15917;50.014;8.352;2024-03-08T10:44:46;26.30;;;12.93;;
28760;SDS011;15917;50.014;8.352;2024-03-08T10:47:23;20.33;;;10.55;;
28760;SDS011;15917;50.014;8.352;2024-03-08T10:49:54;27.23;;;10.82;;
28760;SDS011;15917;50.014;8.352;2024-03-08T10:52:20;21.75;;;11.70;;
28760;SDS011;15917;50.014;8.352;2024-03-08T10:54:49;22.45;;;12.25;;
28760;SDS011;15917;50.014;8.352;2024-03-08T10:57:19;25.92;;;11.13;;
28760;SDS011;15917;50.014;8.352;2024-03-08T10:59:48;21.75;;;12.07;;
28760;SDS011;15917;50.014;8.352;2024-03-08T11:02:15;22.33;;;12.75;;
28760;SDS011;15917;50.014;8.352;2024-03-08T11:04:46;25.25;;;13.13;;
28760;SDS011;15917;50.014;8.352;2024-03-08T11:07:15;25.85;;;12.57;;
28760;SDS011;15917;50.014;8.352;2024-03-08T11:09:45;23.80;;;11.40;;
28760;SDS011;15917;50.014;8.352;2024-03-08T11:12:26;24.80;;;12.57;;
28760;SDS011;15917;50.014;8.352;2024-03-08T11:15:00;26.75;;;12.43;;
28760;SDS011;15917;50.014;8.352;2024-03-08T11:19:59;22.02;;;12.55;;
28760;SDS011;15917;50.014;8.352;2024-03-08T11:22:31;24.27;;;13.05;;
28760;SDS011;15917;50.014;8.352;2024-03-08T11:25:04;25.90;;;12.88;;
28760;SDS011;15917;50.014;8.352;2024-03-08T11:27:37;27.30;;;13.65;;
28760;SDS011;15917;50.014;8.352;2024-03-08T11:30:06;26.25;;;12.15;;
28760;SDS011;15917;50.014;8.352;2024-03-08T11:32:36;26.55;;;13.25;;
28760;SDS011;15917;50.014;8.352;2024-03-08T11:35:17;20.30;;;12.20;;
28760;SDS011;15917;50.014;8.352;2024-03-08T11:37:44;20.52;;;12.27;;
28760;SDS011;15917;50.014;8.352;2024-03-08T11:40:13;23.77;;;13.45;;
28760;SDS011;15917;50.014;8.352;2024-03-08T11:42:44;30.85;;;15.63;;
28760;SDS011;15917;50.014;8.352;2024-03-08T11:45:13;27.70;;;13.32;;
28760;SDS011;15917;50.014;8.352;2024-03-08T11:47:42;24.42;;;12.65;;
28760;SDS011;15917;50.014;8.352;2024-03-08T11:50:11;27.92;;;12.98;;
28760;SDS011;15917;50.014;8.352;2024-03-08T11:52:37;23.83;;;12.70;;
28760;SDS011;15917;50.014;8.352;2024-03-08T11:55:03;25.42;;;12.68;;
28760;SDS011;15917;50.014;8.352;2024-03-08T11:57:30;27.75;;;12.80;;
28760;SDS011;15917;50.014;8.352;2024-03-08T11:59:57;25.23;;;13.00;;
28760;SDS011;15917;50.014;8.352;2024-03-08T12:02:33;26.73;;;12.80;;
28760;SDS011;15917;50.014;8.352;2024-03-08T12:05:07;24.10;;;12.25;;
28760;SDS011;15917;50.014;8.352;2024-03-08T12:07:35;25.42;;;14.15;;
28760;SDS011;15917;50.014;8.352;2024-03-08T12:10:14;23.58;;;12.75;;
28760;SDS011;15917;50.014;8.352;2024-03-08T12:12:48;31.23;;;14.27;;
28760;SDS011;15917;50.014;8.352;2024-03-08T12:15:18;24.23;;;12.65;;
28760;SDS011;15917;50.014;8.352;2024-03-08T12:17:47;26.45;;;13.38;;
28760;SDS011;15917;50.014;8.352;2024-03-08T12:22:43;25.67;;;13.40;;
28760;SDS011;15917;50.014;8.352;2024-03-08T12:25:13;27.33;;;13.18;;
28760;SDS011;15917;50.014;8.352;2024-03-08T12:27:39;29.75;;;14.85;;
28760;SDS011;15917;50.014;8.352;2024-03-08T12:32:59;23.13;;;12.85;;
28760;SDS011;15917;50.014;8.352;2024-03-08T12:35:26;24.83;;;13.43;;
28760;SDS011;15917;50.014;8.352;2024-03-08T12:37:53;26.50;;;13.45;;
28760;SDS011;15917;50.014;8.352;2024-03-08T12:40:38;23.90;;;13.68;;
28760;SDS011;15917;50.014;8.352;2024-03-08T12:43:07;25.35;;;13.77;;
28760;SDS011;15917;50.014;8.352;2024-03-08T12:45:32;35.53;;;13.80;;
28760;SDS011;15917;50.014;8.352;2024-03-08T12:47:58;30.90;;;14.60;;
28760;SDS011;15917;50.014;8.352;2024-03-08T12:50:24;25.95;;;13.95;;
28760;SDS011;15917;50.014;8.352;2024-03-08T12:52:50;27.38;;;15.18;;
28760;SDS011;15917;50.014;8.352;2024-03-08T12:55:17;27.48;;;12.93;;
28760;SDS011;15917;50.014;8.352;2024-03-08T12:57:44;23.15;;;12.30;;
28760;SDS011;15917;50.014;8.352;2024-03-08T13:00:11;26.17;;;14.30;;
28760;SDS011;15917;50.014;8.352;2024-03-08T13:02:48;26.42;;;13.05;;
28760;SDS011;15917;50.014;8.352;2024-03-08T13:05:16;26.15;;;13.45;;
28760;SDS011;15917;50.014;8.352;2024-03-08T13:07:42;29.90;;;14.82;;
28760;SDS011;15917;50.014;8.352;2024-03-08T13:10:11;25.05;;;12.38;;
28760;SDS011;15917;50.014;8.352;2024-03-08T13:12:40;28.55;;;13.63;;
28760;SDS011;15917;50.014;8.352;2024-03-08T13:15:08;29.20;;;14.35;;
28760;SDS011;15917;50.014;8.352;2024-03-08T13:17:45;27.77;;;12.82;;
28760;SDS011;15917;50.014;8.352;2024-03-08T13:20:11;30.02;;;14.80;;
28760;SDS011;15917;50.014;8.352;2024-03-08T13:22:42;31.10;;;16.45;;
28760;SDS011;15917;50.014;8.352;2024-03-08T13:25:08;31.85;;;15.32;;
28760;SDS011;15917;50.014;8.352;2024-03-08T13:27:38;25.88;;;13.77;;
28760;SDS011;15917;50.014;8.352;2024-03-08T13:30:14;25.08;;;13.35;;
28760;SDS011;15917;50.014;8.352;2024-03-08T13:32:43;27.08;;;14.00;;
28760;SDS011;15917;50.014;8.352;2024-03-08T13:35:10;28.00;;;14.53;;
28760;SDS011;15917;50.014;8.352;2024-03-08T13:37:42;24.67;;;12.50;;
28760;SDS011;15917;50.014;8.352;2024-03-08T13:40:09;23.65;;;12.23;;
28760;SDS011;15917;50.014;8.352;2024-03-08T13:42:42;23.63;;;12.50;;
28760;SDS011;15917;50.014;8.352;2024-03-08T13:45:08;25.75;;;14.00;;
28760;SDS011;15917;50.014;8.352;2024-03-08T13:47:40;22.08;;;12.57;;
28760;SDS011;15917;50.014;8.352;2024-03-08T13:50:06;27.77;;;12.88;;
28760;SDS011;15917;50.014;8.352;2024-03-08T13:52:33;27.13;;;13.90;;
28760;SDS011;15917;50.014;8.352;2024-03-08T13:55:00;32.47;;;14.25;;
28760;SDS011;15917;50.014;8.352;2024-03-08T13:57:26;24.50;;;13.32;;
28760;SDS011;15917;50.014;8.352;2024-03-08T13:59:52;26.73;;;13.52;;
28760;SDS011;15917;50.014;8.352;2024-03-08T14:02:18;26.80;;;13.05;;
28760;SDS011;15917;50.014;8.352;2024-03-08T14:04:44;26.02;;;14.23;;
28760;SDS011;15917;50.014;8.352;2024-03-08T14:07:10;35.78;;;15.25;;
28760;SDS011;15917;50.014;8.352;2024-03-08T14:09:36;29.75;;;14.90;;
28760;SDS011;15917;50.014;8.352;2024-03-08T14:12:07;26.15;;;14.05;;
28760;SDS011;15917;50.014;8.352;2024-03-08T14:14:33;27.27;;;13.70;;
28760;SDS011;15917;50.014;8.352;2024-03-08T14:17:00;31.48;;;13.50;;
28760;SDS011;15917;50.014;8.352;2024-03-08T14:19:27;29.95;;;14.18;;
28760;SDS011;15917;50.014;8.352;2024-03-08T14:21:53;26.13;;;13.45;;
28760;SDS011;15917;50.014;8.352;2024-03-08T14:24:19;29.92;;;13.23;;
28760;SDS011;15917;50.014;8.352;2024-03-08T14:26:45;26.35;;;13.88;;
28760;SDS011;15917;50.014;8.352;2024-03-08T14:29:14;33.08;;;15.00;;
28760;SDS011;15917;50.014;8.352;2024-03-08T14:31:40;24.88;;;14.20;;